Terminal Aerodrome Forecast
Issued by NWS Huntsville, AL

Home | Current Version | Previous Version | Text Only | Print | Product List | Glossary On
Versions: 1 2 3 4 5 6 7 8 9 10 11 12 13 14 15 16 17 18 19 20 21 22 23 24 25 26 27 28 29 30 31 32 33 34 35 36 37 38 39 40
000
FTUS44 KHUN 271730
TAFHSV
TAF
KHSV 271730Z 2718/2818 27006KT P6SM VCTS SCT040CB
     FM280200 VRB03KT P6SM BKN050
     FM280900 VRB03KT P6SM VCTS SCT025 BKN050CB
      TEMPO 2809/2813 3SM TSRA BKN025CB
     FM281300 23008KT 5SM -SHRA BR OVC010
     FM281700 24010KT 2SM TSRA BR OVC007CB=

USA.gov is the U.S. government's official web portal to all federal, state and local government web resources and services.